sensor_id;sensor_type;location;lat;lon;timestamp;pressure;altitude;pressure_sealevel;temperature;humidity
50087;BME280;35967;50.718;7.050;2023-01-31T00:08:28;101702.88;;;5.69;83.46
50087;BME280;35967;50.718;7.050;2023-01-31T00:18:33;101713.38;;;5.84;83.30
50087;BME280;35967;50.718;7.050;2023-01-31T00:28:40;101716.69;;;5.79;83.06
50087;BME280;35967;50.718;7.050;2023-01-31T00:38:48;101714.81;;;5.68;83.44
50087;BME280;35967;50.718;7.050;2023-01-31T00:48:52;101710.44;;;5.61;82.38
50087;BME280;35967;50.718;7.050;2023-01-31T00:58:57;101709.41;;;5.50;83.54
50087;BME280;35967;50.718;7.050;2023-01-31T01:20:08;101720.28;;;5.36;83.35
50087;BME280;35967;50.718;7.050;2023-01-31T01:30:12;101719.59;;;5.47;81.84
50087;BME280;35967;50.718;7.050;2023-01-31T01:40:17;101712.34;;;5.21;82.28
50087;BME280;35967;50.718;7.050;2023-01-31T01:50:23;101712.91;;;5.04;82.72
50087;BME280;35967;50.718;7.050;2023-01-31T02:00:30;101721.41;;;5.03;82.57
50087;BME280;35967;50.718;7.050;2023-01-31T02:10:38;101701.41;;;5.27;81.31
50087;BME280;35967;50.718;7.050;2023-01-31T02:21:17;101692.66;;;5.14;81.34
50087;BME280;35967;50.718;7.050;2023-01-31T02:42:12;101682.22;;;5.01;81.41
50087;BME280;35967;50.718;7.050;2023-01-31T02:52:44;101687.41;;;5.06;80.30
50087;BME280;35967;50.718;7.050;2023-01-31T03:02:51;101696.72;;;5.02;80.13
50087;BME280;35967;50.718;7.050;2023-01-31T03:13:05;101701.09;;;5.10;79.32
50087;BME280;35967;50.718;7.050;2023-01-31T03:23:17;101702.53;;;4.95;79.13
50087;BME280;35967;50.718;7.050;2023-01-31T03:33:24;101695.13;;;5.09;79.27
50087;BME280;35967;50.718;7.050;2023-01-31T03:43:34;101689.09;;;5.04;78.53
50087;BME280;35967;50.718;7.050;2023-01-31T03:53:42;101687.25;;;4.97;79.22
50087;BME280;35967;50.718;7.050;2023-01-31T04:03:53;101679.38;;;4.83;79.62
50087;BME280;35967;50.718;7.050;2023-01-31T04:13:58;101685.13;;;4.72;80.04
50087;BME280;35967;50.718;7.050;2023-01-31T04:24:03;101670.09;;;4.86;79.63
50087;BME280;35967;50.718;7.050;2023-01-31T04:34:06;101665.56;;;4.71;80.61
50087;BME280;35967;50.718;7.050;2023-01-31T04:44:11;101654.53;;;4.72;81.28
50087;BME280;35967;50.718;7.050;2023-01-31T04:54:14;101639.19;;;4.71;81.32
50087;BME280;35967;50.718;7.050;2023-01-31T05:04:18;101632.41;;;4.71;82.15
50087;BME280;35967;50.718;7.050;2023-01-31T05:14:22;101625.50;;;4.66;82.52
50087;BME280;35967;50.718;7.050;2023-01-31T05:24:29;101622.91;;;4.63;82.47
50087;BME280;35967;50.718;7.050;2023-01-31T05:34:50;101619.66;;;4.71;82.71
50087;BME280;35967;50.718;7.050;2023-01-31T05:44:55;101621.03;;;4.54;82.62
50087;BME280;35967;50.718;7.050;2023-01-31T05:54:58;101630.44;;;4.56;83.36
50087;BME280;35967;50.718;7.050;2023-01-31T06:05:03;101638.19;;;4.63;83.15
50087;BME280;35967;50.718;7.050;2023-01-31T06:15:06;101628.13;;;4.70;81.99
50087;BME280;35967;50.718;7.050;2023-01-31T06:25:11;101624.41;;;4.53;82.32
50087;BME280;35967;50.718;7.050;2023-01-31T06:35:14;101619.28;;;4.51;82.16
50087;BME280;35967;50.718;7.050;2023-01-31T06:45:20;101603.25;;;4.58;81.72
50087;BME280;35967;50.718;7.050;2023-01-31T06:55:24;101589.00;;;4.68;81.96
50087;BME280;35967;50.718;7.050;2023-01-31T07:05:29;101592.56;;;4.80;81.37
50087;BME280;35967;50.718;7.050;2023-01-31T07:15:33;101611.31;;;4.82;81.61
50087;BME280;35967;50.718;7.050;2023-01-31T07:25:38;101607.84;;;4.77;81.42
50087;BME280;35967;50.718;7.050;2023-01-31T07:35:41;101619.00;;;4.83;81.52
50087;BME280;35967;50.718;7.050;2023-01-31T07:45:48;101616.63;;;4.94;81.00
50087;BME280;35967;50.718;7.050;2023-01-31T07:55:51;101620.09;;;4.98;81.24
50087;BME280;35967;50.718;7.050;2023-01-31T08:05:56;101603.09;;;4.98;80.93
50087;BME280;35967;50.718;7.050;2023-01-31T08:15:59;101590.59;;;5.17;79.70
50087;BME280;35967;50.718;7.050;2023-01-31T08:26:06;101561.75;;;5.19;79.92
50087;BME280;35967;50.718;7.050;2023-01-31T08:36:13;101595.06;;;5.29;79.33
50087;BME280;35967;50.718;7.050;2023-01-31T08:46:18;101588.41;;;5.39;79.86
50087;BME280;35967;50.718;7.050;2023-01-31T08:56:21;101583.44;;;5.51;79.57
50087;BME280;35967;50.718;7.050;2023-01-31T09:06:28;101585.22;;;5.57;79.36
50087;BME280;35967;50.718;7.050;2023-01-31T09:16:33;101585.38;;;5.69;78.58
50087;BME280;35967;50.718;7.050;2023-01-31T09:26:37;101574.44;;;5.79;79.03
50087;BME280;35967;50.718;7.050;2023-01-31T09:36:41;101575.88;;;6.28;79.07
50087;BME280;35967;50.718;7.050;2023-01-31T09:46:50;101544.94;;;6.03;78.71
50087;BME280;35967;50.718;7.050;2023-01-31T09:57:01;101530.50;;;6.07;78.66
50087;BME280;35967;50.718;7.050;2023-01-31T10:07:13;101538.28;;;6.18;79.57
50087;BME280;35967;50.718;7.050;2023-01-31T10:17:22;101513.75;;;6.35;79.03
50087;BME280;35967;50.718;7.050;2023-01-31T10:27:41;101512.94;;;6.41;79.13
50087;BME280;35967;50.718;7.050;2023-01-31T10:37:49;101482.34;;;6.50;78.67
50087;BME280;35967;50.718;7.050;2023-01-31T10:48:03;101481.53;;;6.59;78.81
50087;BME280;35967;50.718;7.050;2023-01-31T10:58:11;101462.06;;;6.75;79.26
50087;BME280;35967;50.718;7.050;2023-01-31T11:08:30;101439.00;;;6.69;80.71
50087;BME280;35967;50.718;7.050;2023-01-31T11:18:41;101423.63;;;6.72;81.69
50087;BME280;35967;50.718;7.050;2023-01-31T11:28:49;101387.81;;;6.73;81.30
50087;BME280;35967;50.718;7.050;2023-01-31T11:38:54;101358.09;;;7.00;81.02
50087;BME280;35967;50.718;7.050;2023-01-31T11:48:58;101338.53;;;7.15;79.08
50087;BME280;35967;50.718;7.050;2023-01-31T11:59:04;101320.63;;;7.25;77.93
50087;BME280;35967;50.718;7.050;2023-01-31T12:09:19;101297.59;;;7.30;77.41
50087;BME280;35967;50.718;7.050;2023-01-31T12:19:32;101290.78;;;7.43;77.52
50087;BME280;35967;50.718;7.050;2023-01-31T12:29:59;101284.78;;;7.33;76.90
50087;BME280;35967;50.718;7.050;2023-01-31T12:40:17;101285.66;;;7.24;77.16
50087;BME280;35967;50.718;7.050;2023-01-31T12:50:32;101290.78;;;7.38;78.09
50087;BME280;35967;50.718;7.050;2023-01-31T13:00:43;101303.59;;;7.54;79.16
50087;BME280;35967;50.718;7.050;2023-01-31T13:10:53;101298.47;;;7.37;79.41
50087;BME280;35967;50.718;7.050;2023-01-31T13:21:01;101289.91;;;7.35;80.42
50087;BME280;35967;50.718;7.050;2023-01-31T13:31:12;101261.75;;;7.35;80.76
50087;BME280;35967;50.718;7.050;2023-01-31T13:41:23;101274.53;;;7.29;80.78
50087;BME280;35967;50.718;7.050;2023-01-31T13:51:34;101289.06;;;7.36;80.87
50087;BME280;35967;50.718;7.050;2023-01-31T14:01:43;101289.09;;;7.39;82.83
50087;BME280;35967;50.718;7.050;2023-01-31T14:11:50;101277.97;;;7.52;84.50
50087;BME280;35967;50.718;7.050;2023-01-31T14:21:55;101281.41;;;7.51;87.57
50087;BME280;35967;50.718;7.050;2023-01-31T14:32:12;101292.50;;;7.32;92.64
50087;BME280;35967;50.718;7.050;2023-01-31T14:53:31;101292.44;;;7.25;92.02
50087;BME280;35967;50.718;7.050;2023-01-31T15:03:37;101283.94;;;7.28;90.71
50087;BME280;35967;50.718;7.050;2023-01-31T15:13:46;101281.38;;;7.34;88.77
50087;BME280;35967;50.718;7.050;2023-01-31T15:23:52;101298.44;;;7.34;87.63
50087;BME280;35967;50.718;7.050;2023-01-31T15:34:00;101297.59;;;7.39;87.10
50087;BME280;35967;50.718;7.050;2023-01-31T15:44:15;101288.22;;;7.38;86.57
50087;BME280;35967;50.718;7.050;2023-01-31T15:54:20;101327.47;;;7.36;86.59
50087;BME280;35967;50.718;7.050;2023-01-31T16:04:26;101347.06;;;7.18;91.44
50087;BME280;35967;50.718;7.050;2023-01-31T16:14:32;101359.84;;;7.06;94.23
50087;BME280;35967;50.718;7.050;2023-01-31T16:24:36;101354.66;;;6.93;97.67
50087;BME280;35967;50.718;7.050;2023-01-31T16:34:40;101360.56;;;6.82;100.00
50087;BME280;35967;50.718;7.050;2023-01-31T16:44:44;101346.22;;;7.25;99.56
50087;BME280;35967;50.718;7.050;2023-01-31T16:54:50;101369.09;;;6.77;100.00
50087;BME280;35967;50.718;7.050;2023-01-31T17:04:57;101381.84;;;6.67;100.00
50087;BME280;35967;50.718;7.050;2023-01-31T17:15:11;101398.00;;;6.62;100.00
50087;BME280;35967;50.718;7.050;2023-01-31T17:25:17;101398.91;;;6.68;100.00
50087;BME280;35967;50.718;7.050;2023-01-31T17:35:26;101393.78;;;6.68;100.00
50087;BME280;35967;50.718;7.050;2023-01-31T17:45:30;101402.34;;;6.79;100.00
50087;BME280;35967;50.718;7.050;2023-01-31T17:55:35;101398.09;;;6.83;100.00
50087;BME280;35967;50.718;7.050;2023-01-31T18:05:38;101404.91;;;6.79;100.00
50087;BME280;35967;50.718;7.050;2023-01-31T18:15:43;101385.38;;;6.93;100.00
50087;BME280;35967;50.718;7.050;2023-01-31T18:25:46;101360.63;;;6.88;100.00
50087;BME280;35967;50.718;7.050;2023-01-31T18:35:55;101362.41;;;7.04;100.00
50087;BME280;35967;50.718;7.050;2023-01-31T18:46:01;101356.41;;;7.01;100.00
50087;BME280;35967;50.718;7.050;2023-01-31T18:56:08;101369.16;;;6.87;100.00
50087;BME280;35967;50.718;7.050;2023-01-31T19:06:15;101368.25;;;6.77;100.00
50087;BME280;35967;50.718;7.050;2023-01-31T19:16:21;101386.94;;;6.70;100.00
50087;BME280;35967;50.718;7.050;2023-01-31T19:26:25;101397.94;;;6.50;100.00
50087;BME280;35967;50.718;7.050;2023-01-31T19:36:31;101391.00;;;6.34;100.00
50087;BME280;35967;50.718;7.050;2023-01-31T19:46:35;101395.22;;;6.31;100.00
50087;BME280;35967;50.718;7.050;2023-01-31T19:56:40;101385.91;;;6.40;100.00
50087;BME280;35967;50.718;7.050;2023-01-31T20:06:43;101370.53;;;6.35;100.00
50087;BME280;35967;50.718;7.050;2023-01-31T20:16:48;101356.13;;;6.50;100.00
50087;BME280;35967;50.718;7.050;2023-01-31T20:26:51;101367.97;;;6.32;100.00
50087;BME280;35967;50.718;7.050;2023-01-31T20:36:56;101390.13;;;6.31;100.00
50087;BME280;35967;50.718;7.050;2023-01-31T20:46:59;101369.66;;;6.30;100.00
50087;BME280;35967;50.718;7.050;2023-01-31T20:57:03;101371.34;;;6.26;100.00
50087;BME280;35967;50.718;7.050;2023-01-31T21:07:06;101364.47;;;6.21;100.00
50087;BME280;35967;50.718;7.050;2023-01-31T21:17:31;101368.69;;;6.11;100.00
50087;BME280;35967;50.718;7.050;2023-01-31T21:27:41;101374.63;;;6.13;100.00
50087;BME280;35967;50.718;7.050;2023-01-31T21:37:48;101370.19;;;5.93;100.00
50087;BME280;35967;50.718;7.050;2023-01-31T21:47:54;101347.25;;;5.98;100.00
50087;BME280;35967;50.718;7.050;2023-01-31T21:58:17;101343.03;;;6.03;100.00
50087;BME280;35967;50.718;7.050;2023-01-31T22:08:21;101350.78;;;6.11;100.00
50087;BME280;35967;50.718;7.050;2023-01-31T22:18:26;101349.94;;;6.13;100.00
50087;BME280;35967;50.718;7.050;2023-01-31T22:28:30;101330.41;;;6.20;100.00
50087;BME280;35967;50.718;7.050;2023-01-31T22:38:35;101315.06;;;6.22;100.00
50087;BME280;35967;50.718;7.050;2023-01-31T22:48:38;101310.84;;;6.33;100.00
50087;BME280;35967;50.718;7.050;2023-01-31T22:58:48;101287.91;;;6.39;100.00
50087;BME280;35967;50.718;7.050;2023-01-31T23:08:55;101271.69;;;6.36;100.00
50087;BME280;35967;50.718;7.050;2023-01-31T23:19:00;101281.91;;;6.39;100.00
50087;BME280;35967;50.718;7.050;2023-01-31T23:29:03;101276.84;;;6.46;100.00
50087;BME280;35967;50.718;7.050;2023-01-31T23:39:08;101268.41;;;6.63;100.00
50087;BME280;35967;50.718;7.050;2023-01-31T23:49:12;101264.97;;;6.62;100.00
50087;BME280;35967;50.718;7.050;2023-01-31T23:59:16;101266.66;;;6.56;100.00
